Kezdőlap
METAR-TAF:

METAR-TAF

Repülőterek :

Bangui, Közép-afrikai Köztársaság

Bangui M’Poko nemzetközi repülőtér

földrajzi szélesség: 04-24N, földrajzi hosszúság: 018-31E, magasság: 365 m

Jelenlegi meteorológiai megfigyelések

A jelentés 56 perccel ezelõtt készült, 00:00 UTC
Déli szél 3 kt
Hőmérséklet 27°C
Páratartalom 79%
Légköri nyomás 1010 hPa
Látótávolság: 8000 m
Kevés felhő 1300 lábon

METAR: FEFF 240000Z 18003KT 8000 FEW013 27/23 Q1010 NOSIG

Idő: 01:56 (00:56 UTC)


TAF: hiányzik

Meteorológiai megfigyelések és előrejelzések több, mint 4000 repülőtéren (METAR és TAF jelentéseket).

A térképen piros és sárga pontok jelzik az elérhető meteorológiai állomásokat.

Mozgassa az egeret a pont fölött, hogy megjelenjen az állomás neve.

Azután kattintson az időjárási megfigyelések és előrejelzések megtekintéséhez.

A térkép megváltoztatása: kattintson a fekete keresztel jelölt zöld gombra ráközelítéshez, a vonallal jelölt zöld gombra távolításhoz, vagy a zöld nyilakra a szomszédos térképek eléréséhez.


METAR-TAF: